sensor_id;sensor_type;location;lat;lon;timestamp;pressure;altitude;pressure_sealevel;temperature;humidity
59588;BME280;45412;54.472;18.464;2023-01-27T00:00:52;100341.14;;;0.83;100.00
59588;BME280;45412;54.472;18.464;2023-01-27T00:03:40;100340.25;;;0.84;100.00
59588;BME280;45412;54.472;18.464;2023-01-27T00:06:28;100340.46;;;0.88;100.00
59588;BME280;45412;54.472;18.464;2023-01-27T00:09:16;100341.22;;;0.92;100.00
59588;BME280;45412;54.472;18.464;2023-01-27T00:12:04;100340.95;;;0.94;100.00
59588;BME280;45412;54.472;18.464;2023-01-27T00:15:13;100342.24;;;0.97;100.00
59588;BME280;45412;54.472;18.464;2023-01-27T00:18:01;100344.81;;;0.99;100.00
59588;BME280;45412;54.472;18.464;2023-01-27T00:20:52;100345.10;;;1.01;100.00
59588;BME280;45412;54.472;18.464;2023-01-27T00:23:58;100345.06;;;1.03;100.00
59588;BME280;45412;54.472;18.464;2023-01-27T00:27:07;100345.88;;;1.04;100.00
59588;BME280;45412;54.472;18.464;2023-01-27T00:29:58;100342.40;;;1.04;100.00
59588;BME280;45412;54.472;18.464;2023-01-27T00:32:46;100348.32;;;1.09;100.00
59588;BME280;45412;54.472;18.464;2023-01-27T00:36:04;100354.13;;;1.13;100.00
59588;BME280;45412;54.472;18.464;2023-01-27T00:38:53;100352.79;;;1.17;100.00
59588;BME280;45412;54.472;18.464;2023-01-27T00:41:41;100353.89;;;1.20;100.00
59588;BME280;45412;54.472;18.464;2023-01-27T00:44:29;100354.27;;;1.25;100.00
59588;BME280;45412;54.472;18.464;2023-01-27T00:47:17;100355.55;;;1.28;100.00
59588;BME280;45412;54.472;18.464;2023-01-27T00:50:06;100351.69;;;1.28;100.00
59588;BME280;45412;54.472;18.464;2023-01-27T00:53:01;100356.07;;;1.28;100.00
59588;BME280;45412;54.472;18.464;2023-01-27T00:55:50;100359.05;;;1.27;100.00
59588;BME280;45412;54.472;18.464;2023-01-27T00:58:38;100355.80;;;1.26;100.00
59588;BME280;45412;54.472;18.464;2023-01-27T01:01:27;100357.30;;;1.28;100.00
59588;BME280;45412;54.472;18.464;2023-01-27T01:04:18;100363.35;;;1.30;100.00
59588;BME280;45412;54.472;18.464;2023-01-27T01:07:06;100372.69;;;1.33;100.00
59588;BME280;45412;54.472;18.464;2023-01-27T01:09:54;100370.54;;;1.34;100.00
59588;BME280;45412;54.472;18.464;2023-01-27T01:12:43;100366.61;;;1.37;100.00
59588;BME280;45412;54.472;18.464;2023-01-27T01:15:35;100368.90;;;1.41;100.00
59588;BME280;45412;54.472;18.464;2023-01-27T01:18:23;100373.85;;;1.45;100.00
59588;BME280;45412;54.472;18.464;2023-01-27T01:21:15;100384.45;;;1.47;100.00
59588;BME280;45412;54.472;18.464;2023-01-27T01:24:04;100383.50;;;1.49;100.00
59588;BME280;45412;54.472;18.464;2023-01-27T01:26:53;100379.69;;;1.48;100.00
59588;BME280;45412;54.472;18.464;2023-01-27T01:29:46;100383.85;;;1.54;100.00
59588;BME280;45412;54.472;18.464;2023-01-27T01:32:35;100382.52;;;1.57;100.00
59588;BME280;45412;54.472;18.464;2023-01-27T01:35:23;100385.07;;;1.59;100.00
59588;BME280;45412;54.472;18.464;2023-01-27T01:38:12;100382.98;;;1.64;100.00
59588;BME280;45412;54.472;18.464;2023-01-27T01:41:05;100384.46;;;1.66;100.00
59588;BME280;45412;54.472;18.464;2023-01-27T01:43:53;100384.52;;;1.69;100.00
59588;BME280;45412;54.472;18.464;2023-01-27T01:46:41;100387.19;;;1.74;100.00
59588;BME280;45412;54.472;18.464;2023-01-27T01:49:37;100388.58;;;1.79;100.00
59588;BME280;45412;54.472;18.464;2023-01-27T01:52:26;100386.29;;;1.84;100.00
59588;BME280;45412;54.472;18.464;2023-01-27T01:55:14;100388.05;;;1.89;100.00
59588;BME280;45412;54.472;18.464;2023-01-27T01:58:04;100389.85;;;1.92;100.00
59588;BME280;45412;54.472;18.464;2023-01-27T02:00:54;100386.44;;;1.94;100.00
59588;BME280;45412;54.472;18.464;2023-01-27T02:03:46;100387.88;;;1.93;100.00
59588;BME280;45412;54.472;18.464;2023-01-27T02:06:44;100388.90;;;1.94;100.00
59588;BME280;45412;54.472;18.464;2023-01-27T02:09:38;100390.77;;;1.95;100.00
59588;BME280;45412;54.472;18.464;2023-01-27T02:12:27;100393.90;;;1.96;100.00
59588;BME280;45412;54.472;18.464;2023-01-27T02:15:16;100397.73;;;1.96;100.00
59588;BME280;45412;54.472;18.464;2023-01-27T02:18:05;100398.95;;;1.96;100.00
59588;BME280;45412;54.472;18.464;2023-01-27T02:20:54;100401.21;;;1.97;100.00
59588;BME280;45412;54.472;18.464;2023-01-27T02:26:45;100412.45;;;2.01;100.00
59588;BME280;45412;54.472;18.464;2023-01-27T02:29:33;100410.02;;;1.95;100.00
59588;BME280;45412;54.472;18.464;2023-01-27T02:32:24;100414.66;;;1.97;100.00
59588;BME280;45412;54.472;18.464;2023-01-27T02:35:20;100418.77;;;1.96;100.00
59588;BME280;45412;54.472;18.464;2023-01-27T02:38:11;100419.70;;;1.94;100.00
59588;BME280;45412;54.472;18.464;2023-01-27T02:41:33;100414.76;;;1.90;100.00
59588;BME280;45412;54.472;18.464;2023-01-27T02:44:19;100426.10;;;1.91;100.00
59588;BME280;45412;54.472;18.464;2023-01-27T02:47:07;100438.20;;;1.90;100.00
59588;BME280;45412;54.472;18.464;2023-01-27T02:49:55;100436.98;;;1.90;100.00
59588;BME280;45412;54.472;18.464;2023-01-27T02:52:43;100432.73;;;1.87;100.00
59588;BME280;45412;54.472;18.464;2023-01-27T02:55:32;100436.96;;;1.86;100.00
59588;BME280;45412;54.472;18.464;2023-01-27T02:58:21;100443.13;;;1.84;100.00
59588;BME280;45412;54.472;18.464;2023-01-27T03:01:17;100446.48;;;1.83;100.00
59588;BME280;45412;54.472;18.464;2023-01-27T03:04:05;100447.60;;;1.82;100.00
59588;BME280;45412;54.472;18.464;2023-01-27T03:06:54;100450.45;;;1.85;100.00
59588;BME280;45412;54.472;18.464;2023-01-27T03:09:43;100453.27;;;1.84;100.00
59588;BME280;45412;54.472;18.464;2023-01-27T03:12:31;100454.55;;;1.83;100.00
59588;BME280;45412;54.472;18.464;2023-01-27T03:15:19;100452.71;;;1.80;100.00
59588;BME280;45412;54.472;18.464;2023-01-27T03:18:26;100455.40;;;1.79;100.00
59588;BME280;45412;54.472;18.464;2023-01-27T03:21:17;100459.15;;;1.77;100.00
59588;BME280;45412;54.472;18.464;2023-01-27T03:24:05;100457.67;;;1.74;100.00
59588;BME280;45412;54.472;18.464;2023-01-27T03:26:54;100464.33;;;1.74;100.00
59588;BME280;45412;54.472;18.464;2023-01-27T03:29:53;100467.79;;;1.69;100.00
59588;BME280;45412;54.472;18.464;2023-01-27T03:32:43;100470.37;;;1.66;100.00
59588;BME280;45412;54.472;18.464;2023-01-27T03:36:04;100473.97;;;1.63;100.00
59588;BME280;45412;54.472;18.464;2023-01-27T03:39:12;100479.60;;;1.62;100.00
59588;BME280;45412;54.472;18.464;2023-01-27T03:42:18;100480.41;;;1.59;100.00
59588;BME280;45412;54.472;18.464;2023-01-27T03:45:24;100481.70;;;1.57;100.00
59588;BME280;45412;54.472;18.464;2023-01-27T03:48:31;100485.57;;;1.51;100.00
59588;BME280;45412;54.472;18.464;2023-01-27T03:51:23;100487.73;;;1.49;100.00
59588;BME280;45412;54.472;18.464;2023-01-27T03:54:11;100486.56;;;1.47;100.00
59588;BME280;45412;54.472;18.464;2023-01-27T03:56:59;100490.44;;;1.46;100.00
59588;BME280;45412;54.472;18.464;2023-01-27T03:59:53;100489.77;;;1.45;100.00
59588;BME280;45412;54.472;18.464;2023-01-27T04:02:41;100489.04;;;1.46;100.00
59588;BME280;45412;54.472;18.464;2023-01-27T04:05:47;100496.16;;;1.48;100.00
59588;BME280;45412;54.472;18.464;2023-01-27T04:08:54;100495.44;;;1.49;100.00
59588;BME280;45412;54.472;18.464;2023-01-27T04:11:43;100502.45;;;1.48;100.00
59588;BME280;45412;54.472;18.464;2023-01-27T04:14:42;100503.02;;;1.46;100.00
59588;BME280;45412;54.472;18.464;2023-01-27T04:17:35;100509.16;;;1.46;100.00
59588;BME280;45412;54.472;18.464;2023-01-27T04:20:25;100510.88;;;1.47;100.00
59588;BME280;45412;54.472;18.464;2023-01-27T04:23:13;100516.80;;;1.48;100.00
59588;BME280;45412;54.472;18.464;2023-01-27T04:26:02;100515.36;;;1.49;100.00
59588;BME280;45412;54.472;18.464;2023-01-27T04:28:52;100518.65;;;1.50;100.00
59588;BME280;45412;54.472;18.464;2023-01-27T04:31:43;100522.21;;;1.53;100.00
59588;BME280;45412;54.472;18.464;2023-01-27T04:34:34;100520.15;;;1.52;100.00
59588;BME280;45412;54.472;18.464;2023-01-27T04:37:22;100516.47;;;1.47;100.00
59588;BME280;45412;54.472;18.464;2023-01-27T04:40:12;100528.99;;;1.49;100.00
59588;BME280;45412;54.472;18.464;2023-01-27T04:43:00;100528.61;;;1.50;100.00
59588;BME280;45412;54.472;18.464;2023-01-27T04:45:51;100525.13;;;1.49;100.00
59588;BME280;45412;54.472;18.464;2023-01-27T04:48:39;100534.06;;;1.49;100.00
59588;BME280;45412;54.472;18.464;2023-01-27T04:51:27;100533.71;;;1.49;100.00
59588;BME280;45412;54.472;18.464;2023-01-27T04:54:15;100539.66;;;1.49;100.00
59588;BME280;45412;54.472;18.464;2023-01-27T04:57:03;100544.11;;;1.47;100.00
59588;BME280;45412;54.472;18.464;2023-01-27T04:59:51;100546.95;;;1.46;100.00
59588;BME280;45412;54.472;18.464;2023-01-27T05:02:39;100549.75;;;1.46;100.00
59588;BME280;45412;54.472;18.464;2023-01-27T05:05:27;100555.08;;;1.43;100.00
59588;BME280;45412;54.472;18.464;2023-01-27T05:08:15;100558.09;;;1.42;100.00
59588;BME280;45412;54.472;18.464;2023-01-27T05:11:04;100560.21;;;1.41;100.00
59588;BME280;45412;54.472;18.464;2023-01-27T05:13:52;100562.30;;;1.42;100.00
59588;BME280;45412;54.472;18.464;2023-01-27T05:16:40;100562.57;;;1.44;100.00
59588;BME280;45412;54.472;18.464;2023-01-27T05:19:28;100570.98;;;1.43;100.00
59588;BME280;45412;54.472;18.464;2023-01-27T05:22:16;100568.96;;;1.41;100.00
59588;BME280;45412;54.472;18.464;2023-01-27T05:25:05;100574.31;;;1.43;100.00
59588;BME280;45412;54.472;18.464;2023-01-27T05:27:55;100580.44;;;1.43;100.00
59588;BME280;45412;54.472;18.464;2023-01-27T05:30:43;100580.82;;;1.42;100.00
59588;BME280;45412;54.472;18.464;2023-01-27T05:33:31;100585.30;;;1.39;100.00
59588;BME280;45412;54.472;18.464;2023-01-27T05:36:25;100587.89;;;1.40;100.00
59588;BME280;45412;54.472;18.464;2023-01-27T05:39:13;100591.87;;;1.41;100.00
59588;BME280;45412;54.472;18.464;2023-01-27T05:42:01;100597.13;;;1.41;100.00
59588;BME280;45412;54.472;18.464;2023-01-27T05:44:48;100598.33;;;1.41;100.00
59588;BME280;45412;54.472;18.464;2023-01-27T05:47:37;100598.38;;;1.40;100.00
59588;BME280;45412;54.472;18.464;2023-01-27T05:50:25;100603.27;;;1.40;100.00
59588;BME280;45412;54.472;18.464;2023-01-27T05:53:12;100609.05;;;1.39;100.00
59588;BME280;45412;54.472;18.464;2023-01-27T05:56:02;100608.27;;;1.37;100.00
59588;BME280;45412;54.472;18.464;2023-01-27T05:58:50;100614.38;;;1.37;100.00
59588;BME280;45412;54.472;18.464;2023-01-27T06:01:40;100618.52;;;1.38;100.00
59588;BME280;45412;54.472;18.464;2023-01-27T06:04:30;100623.36;;;1.40;100.00
59588;BME280;45412;54.472;18.464;2023-01-27T06:07:18;100627.71;;;1.35;100.00
59588;BME280;45412;54.472;18.464;2023-01-27T06:10:07;100636.15;;;1.33;100.00
59588;BME280;45412;54.472;18.464;2023-01-27T06:12:55;100638.97;;;1.33;100.00
59588;BME280;45412;54.472;18.464;2023-01-27T06:15:45;100640.75;;;1.32;100.00
59588;BME280;45412;54.472;18.464;2023-01-27T06:18:36;100643.99;;;1.29;100.00
59588;BME280;45412;54.472;18.464;2023-01-27T06:21:27;100649.48;;;1.26;100.00
59588;BME280;45412;54.472;18.464;2023-01-27T06:24:16;100647.70;;;1.21;99.99
59588;BME280;45412;54.472;18.464;2023-01-27T06:27:03;100650.02;;;1.20;99.88
59588;BME280;45412;54.472;18.464;2023-01-27T06:29:52;100663.23;;;1.16;99.13
59588;BME280;45412;54.472;18.464;2023-01-27T06:32:40;100668.51;;;1.15;99.26
59588;BME280;45412;54.472;18.464;2023-01-27T06:35:29;100666.79;;;1.14;98.95
59588;BME280;45412;54.472;18.464;2023-01-27T06:38:21;100675.04;;;1.13;98.47
59588;BME280;45412;54.472;18.464;2023-01-27T06:41:09;100674.04;;;1.11;97.92
59588;BME280;45412;54.472;18.464;2023-01-27T06:43:58;100676.09;;;1.07;97.67
59588;BME280;45412;54.472;18.464;2023-01-27T06:46:48;100681.86;;;1.07;97.19
59588;BME280;45412;54.472;18.464;2023-01-27T06:49:36;100686.23;;;1.07;97.44
59588;BME280;45412;54.472;18.464;2023-01-27T06:52:24;100695.02;;;1.05;97.56
59588;BME280;45412;54.472;18.464;2023-01-27T06:55:14;100697.13;;;1.05;97.48
59588;BME280;45412;54.472;18.464;2023-01-27T06:58:02;100703.98;;;1.04;96.68
59588;BME280;45412;54.472;18.464;2023-01-27T07:00:51;100702.68;;;1.06;96.50
59588;BME280;45412;54.472;18.464;2023-01-27T07:03:40;100704.94;;;1.07;95.84
59588;BME280;45412;54.472;18.464;2023-01-27T07:06:33;100709.35;;;1.05;95.36
59588;BME280;45412;54.472;18.464;2023-01-27T07:09:24;100710.91;;;1.06;95.56
59588;BME280;45412;54.472;18.464;2023-01-27T07:12:12;100714.38;;;1.07;95.68
59588;BME280;45412;54.472;18.464;2023-01-27T07:15:00;100716.13;;;1.07;95.24
59588;BME280;45412;54.472;18.464;2023-01-27T07:17:48;100716.22;;;1.04;94.32
59588;BME280;45412;54.472;18.464;2023-01-27T07:20:35;100714.36;;;1.01;94.43
59588;BME280;45412;54.472;18.464;2023-01-27T07:23:24;100723.33;;;0.99;94.45
59588;BME280;45412;54.472;18.464;2023-01-27T07:26:12;100727.25;;;0.96;93.97
59588;BME280;45412;54.472;18.464;2023-01-27T07:29:12;100732.77;;;0.92;93.17
59588;BME280;45412;54.472;18.464;2023-01-27T07:32:02;100738.38;;;0.92;93.70
59588;BME280;45412;54.472;18.464;2023-01-27T07:34:52;100743.52;;;0.89;93.35
59588;BME280;45412;54.472;18.464;2023-01-27T07:37:40;100750.02;;;0.87;93.51
59588;BME280;45412;54.472;18.464;2023-01-27T07:40:28;100746.73;;;0.86;93.62
59588;BME280;45412;54.472;18.464;2023-01-27T07:43:16;100741.80;;;0.87;93.96
59588;BME280;45412;54.472;18.464;2023-01-27T07:46:06;100749.65;;;0.88;93.92
59588;BME280;45412;54.472;18.464;2023-01-27T07:48:55;100744.05;;;0.95;94.24
59588;BME280;45412;54.472;18.464;2023-01-27T07:51:42;100751.95;;;1.01;93.77
59588;BME280;45412;54.472;18.464;2023-01-27T07:54:30;100759.55;;;1.10;94.45
59588;BME280;45412;54.472;18.464;2023-01-27T07:57:20;100755.42;;;1.20;93.42
59588;BME280;45412;54.472;18.464;2023-01-27T08:00:09;100759.01;;;1.24;92.15
59588;BME280;45412;54.472;18.464;2023-01-27T08:03:05;100759.54;;;1.23;92.28
59588;BME280;45412;54.472;18.464;2023-01-27T08:05:53;100767.33;;;1.26;92.44
59588;BME280;45412;54.472;18.464;2023-01-27T08:08:41;100760.51;;;1.20;92.04
59588;BME280;45412;54.472;18.464;2023-01-27T08:11:31;100765.27;;;1.18;91.56
59588;BME280;45412;54.472;18.464;2023-01-27T08:14:23;100774.61;;;1.15;91.64
59588;BME280;45412;54.472;18.464;2023-01-27T08:17:20;100783.07;;;1.13;92.01
59588;BME280;45412;54.472;18.464;2023-01-27T08:20:09;100778.11;;;1.09;91.18
59588;BME280;45412;54.472;18.464;2023-01-27T08:22:58;100786.45;;;1.11;91.14
59588;BME280;45412;54.472;18.464;2023-01-27T08:25:51;100790.02;;;1.14;91.60
59588;BME280;45412;54.472;18.464;2023-01-27T08:28:40;100790.97;;;1.18;91.52
59588;BME280;45412;54.472;18.464;2023-01-27T08:31:31;100792.48;;;1.20;90.64
59588;BME280;45412;54.472;18.464;2023-01-27T08:34:21;100805.90;;;1.29;89.77
59588;BME280;45412;54.472;18.464;2023-01-27T08:37:10;100799.55;;;1.37;89.76
59588;BME280;45412;54.472;18.464;2023-01-27T08:39:58;100799.88;;;1.45;89.19
59588;BME280;45412;54.472;18.464;2023-01-27T08:42:49;100802.93;;;1.53;89.26
59588;BME280;45412;54.472;18.464;2023-01-27T08:45:37;100814.81;;;1.54;88.51
59588;BME280;45412;54.472;18.464;2023-01-27T08:48:27;100804.88;;;1.53;87.46
59588;BME280;45412;54.472;18.464;2023-01-27T08:51:15;100809.10;;;1.58;86.62
59588;BME280;45412;54.472;18.464;2023-01-27T08:54:05;100810.73;;;1.62;85.45
59588;BME280;45412;54.472;18.464;2023-01-27T08:56:53;100808.23;;;1.64;85.13
59588;BME280;45412;54.472;18.464;2023-01-27T08:59:43;100809.98;;;1.64;84.89
59588;BME280;45412;54.472;18.464;2023-01-27T09:02:32;100810.23;;;1.79;84.89
59588;BME280;45412;54.472;18.464;2023-01-27T09:05:23;100806.19;;;1.86;84.53
59588;BME280;45412;54.472;18.464;2023-01-27T09:08:14;100815.32;;;1.97;84.88
59588;BME280;45412;54.472;18.464;2023-01-27T09:11:16;100814.33;;;2.07;83.17
59588;BME280;45412;54.472;18.464;2023-01-27T09:14:04;100820.59;;;2.19;83.02
59588;BME280;45412;54.472;18.464;2023-01-27T09:16:52;100823.81;;;2.51;82.66
59588;BME280;45412;54.472;18.464;2023-01-27T09:19:40;100819.77;;;3.34;82.26
59588;BME280;45412;54.472;18.464;2023-01-27T09:22:28;100812.10;;;3.72;78.18
59588;BME280;45412;54.472;18.464;2023-01-27T09:25:18;100822.27;;;4.18;77.60
59588;BME280;45412;54.472;18.464;2023-01-27T09:28:11;100811.27;;;5.75;73.64
59588;BME280;45412;54.472;18.464;2023-01-27T09:31:05;100802.45;;;6.51;66.67
59588;BME280;45412;54.472;18.464;2023-01-27T09:33:57;100806.10;;;6.16;65.02
59588;BME280;45412;54.472;18.464;2023-01-27T09:36:53;100808.10;;;5.95;66.00
59588;BME280;45412;54.472;18.464;2023-01-27T09:39:56;100806.17;;;5.48;65.87
59588;BME280;45412;54.472;18.464;2023-01-27T09:46:20;100824.88;;;4.51;67.33
59588;BME280;45412;54.472;18.464;2023-01-27T10:13:38;100827.99;;;3.74;70.48
59588;BME280;45412;54.472;18.464;2023-01-27T10:23:29;100827.98;;;5.28;66.64
59588;BME280;45412;54.472;18.464;2023-01-27T10:26:41;100828.77;;;4.93;65.22
59588;BME280;45412;54.472;18.464;2023-01-27T10:29:45;100824.98;;;4.66;65.86
59588;BME280;45412;54.472;18.464;2023-01-27T10:35:58;100822.14;;;8.45;61.17
59588;BME280;45412;54.472;18.464;2023-01-27T10:39:10;100808.33;;;10.02;54.28
59588;BME280;45412;54.472;18.464;2023-01-27T10:48:35;100808.64;;;10.83;47.63
59588;BME280;45412;54.472;18.464;2023-01-27T10:51:36;100809.68;;;10.14;46.99
59588;BME280;45412;54.472;18.464;2023-01-27T10:54:36;100814.77;;;8.99;48.48
59588;BME280;45412;54.472;18.464;2023-01-27T10:57:37;100815.15;;;8.37;50.34
59588;BME280;45412;54.472;18.464;2023-01-27T11:00:48;100812.31;;;8.84;48.82
59588;BME280;45412;54.472;18.464;2023-01-27T11:04:33;100818.23;;;8.61;49.33
59588;BME280;45412;54.472;18.464;2023-01-27T11:07:25;100816.39;;;9.28;49.78
59588;BME280;45412;54.472;18.464;2023-01-27T11:10:18;100814.69;;;10.67;46.64
59588;BME280;45412;54.472;18.464;2023-01-27T11:13:11;100815.72;;;10.03;47.63
59588;BME280;45412;54.472;18.464;2023-01-27T11:16:03;100822.88;;;9.27;47.75
59588;BME280;45412;54.472;18.464;2023-01-27T11:18:58;100827.17;;;8.72;48.24
59588;BME280;45412;54.472;18.464;2023-01-27T11:21:51;100830.73;;;7.55;50.13
59588;BME280;45412;54.472;18.464;2023-01-27T11:28:59;100832.17;;;5.80;56.09
59588;BME280;45412;54.472;18.464;2023-01-27T11:32:28;100831.21;;;5.47;57.82
59588;BME280;45412;54.472;18.464;2023-01-27T11:35:18;100834.59;;;6.08;59.37
59588;BME280;45412;54.472;18.464;2023-01-27T11:38:19;100828.33;;;6.77;56.40
59588;BME280;45412;54.472;18.464;2023-01-27T11:41:08;100833.39;;;6.49;56.27
59588;BME280;45412;54.472;18.464;2023-01-27T11:44:04;100834.77;;;6.05;56.93
59588;BME280;45412;54.472;18.464;2023-01-27T11:46:57;100831.65;;;5.57;58.40
59588;BME280;45412;54.472;18.464;2023-01-27T11:49:47;100830.69;;;5.22;58.96
59588;BME280;45412;54.472;18.464;2023-01-27T11:52:36;100836.27;;;4.94;59.69
59588;BME280;45412;54.472;18.464;2023-01-27T11:55:30;100831.66;;;4.61;60.20
59588;BME280;45412;54.472;18.464;2023-01-27T12:02:23;100822.87;;;5.92;56.89
59588;BME280;45412;54.472;18.464;2023-01-27T12:05:26;100823.67;;;5.30;56.47
59588;BME280;45412;54.472;18.464;2023-01-27T12:08:45;100829.60;;;4.73;57.10
59588;BME280;45412;54.472;18.464;2023-01-27T12:11:36;100837.18;;;4.42;58.00
59588;BME280;45412;54.472;18.464;2023-01-27T12:14:24;100834.24;;;4.13;59.13
59588;BME280;45412;54.472;18.464;2023-01-27T12:17:23;100835.36;;;3.93;60.33
59588;BME280;45412;54.472;18.464;2023-01-27T12:20:29;100832.09;;;3.77;61.62
59588;BME280;45412;54.472;18.464;2023-01-27T12:23:51;100830.48;;;4.20;61.74
59588;BME280;45412;54.472;18.464;2023-01-27T12:26:43;100825.19;;;4.56;60.23
59588;BME280;45412;54.472;18.464;2023-01-27T12:29:41;100824.39;;;4.32;60.31
59588;BME280;45412;54.472;18.464;2023-01-27T12:32:45;100826.59;;;4.07;61.87
59588;BME280;45412;54.472;18.464;2023-01-27T12:35:35;100830.59;;;3.75;62.49
59588;BME280;45412;54.472;18.464;2023-01-27T12:38:25;100829.48;;;3.52;63.80
59588;BME280;45412;54.472;18.464;2023-01-27T12:41:21;100824.69;;;3.29;63.89
59588;BME280;45412;54.472;18.464;2023-01-27T12:44:19;100825.23;;;3.24;64.85
59588;BME280;45412;54.472;18.464;2023-01-27T12:47:25;100836.19;;;3.46;64.62
59588;BME280;45412;54.472;18.464;2023-01-27T12:50:24;100837.70;;;3.34;65.25
59588;BME280;45412;54.472;18.464;2023-01-27T12:53:17;100834.27;;;3.26;65.98
59588;BME280;45412;54.472;18.464;2023-01-27T12:56:16;100829.05;;;3.10;65.64
59588;BME280;45412;54.472;18.464;2023-01-27T12:59:12;100832.42;;;2.93;66.13
59588;BME280;45412;54.472;18.464;2023-01-27T13:02:21;100832.05;;;2.78;65.18
59588;BME280;45412;54.472;18.464;2023-01-27T13:05:15;100837.84;;;2.89;63.59
59588;BME280;45412;54.472;18.464;2023-01-27T13:08:04;100833.08;;;3.00;62.94
59588;BME280;45412;54.472;18.464;2023-01-27T13:10:58;100830.07;;;3.16;62.68
59588;BME280;45412;54.472;18.464;2023-01-27T13:13:50;100828.09;;;3.32;61.77
59588;BME280;45412;54.472;18.464;2023-01-27T13:16:38;100823.39;;;3.21;61.84
59588;BME280;45412;54.472;18.464;2023-01-27T13:19:41;100831.23;;;3.48;61.15
59588;BME280;45412;54.472;18.464;2023-01-27T13:22:39;100828.59;;;3.52;61.00
59588;BME280;45412;54.472;18.464;2023-01-27T13:26:24;100829.77;;;3.40;61.46
59588;BME280;45412;54.472;18.464;2023-01-27T13:29:15;100832.99;;;3.18;62.19
59588;BME280;45412;54.472;18.464;2023-01-27T13:32:28;100835.96;;;3.02;63.28
59588;BME280;45412;54.472;18.464;2023-01-27T13:35:33;100832.06;;;2.78;63.68
59588;BME280;45412;54.472;18.464;2023-01-27T13:38:52;100833.47;;;2.56;64.89
59588;BME280;45412;54.472;18.464;2023-01-27T13:42:01;100836.42;;;2.34;64.94
59588;BME280;45412;54.472;18.464;2023-01-27T13:45:04;100842.34;;;2.24;66.06
59588;BME280;45412;54.472;18.464;2023-01-27T13:50:54;100842.17;;;2.00;67.18
59588;BME280;45412;54.472;18.464;2023-01-27T13:53:46;100842.40;;;1.87;68.17
59588;BME280;45412;54.472;18.464;2023-01-27T13:57:30;100840.60;;;1.76;68.32
59588;BME280;45412;54.472;18.464;2023-01-27T14:00:41;100833.66;;;1.62;68.76
59588;BME280;45412;54.472;18.464;2023-01-27T14:07:11;100840.13;;;1.56;69.59
59588;BME280;45412;54.472;18.464;2023-01-27T14:17:38;100848.92;;;1.41;71.06
59588;BME280;45412;54.472;18.464;2023-01-27T14:24:35;100854.52;;;1.28;72.25
59588;BME280;45412;54.472;18.464;2023-01-27T14:30:28;100856.05;;;1.16;72.99
59588;BME280;45412;54.472;18.464;2023-01-27T14:37:07;100861.58;;;0.98;73.43
59588;BME280;45412;54.472;18.464;2023-01-27T14:55:54;100870.23;;;0.58;74.28
59588;BME280;45412;54.472;18.464;2023-01-27T14:58:58;100875.02;;;0.55;74.30
59588;BME280;45412;54.472;18.464;2023-01-27T15:08:42;100879.77;;;0.46;74.67
59588;BME280;45412;54.472;18.464;2023-01-27T15:12:01;100873.95;;;0.41;75.04
59588;BME280;45412;54.472;18.464;2023-01-27T15:18:32;100881.89;;;0.37;75.58
59588;BME280;45412;54.472;18.464;2023-01-27T15:21:34;100886.66;;;0.34;75.50
59588;BME280;45412;54.472;18.464;2023-01-27T15:27:33;100888.31;;;0.31;75.54
59588;BME280;45412;54.472;18.464;2023-01-27T15:30:33;100889.19;;;0.30;75.49
59588;BME280;45412;54.472;18.464;2023-01-27T15:36:37;100895.84;;;0.30;75.68
59588;BME280;45412;54.472;18.464;2023-01-27T15:39:27;100892.38;;;0.28;75.32
59588;BME280;45412;54.472;18.464;2023-01-27T15:43:02;100895.75;;;0.26;74.47
59588;BME280;45412;54.472;18.464;2023-01-27T15:45:55;100898.05;;;0.24;73.63
59588;BME280;45412;54.472;18.464;2023-01-27T15:48:45;100902.43;;;0.24;73.60
59588;BME280;45412;54.472;18.464;2023-01-27T15:51:35;100905.39;;;0.24;73.90
59588;BME280;45412;54.472;18.464;2023-01-27T15:54:28;100907.33;;;0.23;73.26
59588;BME280;45412;54.472;18.464;2023-01-27T15:57:32;100914.14;;;0.23;73.27
59588;BME280;45412;54.472;18.464;2023-01-27T16:00:50;100907.70;;;0.22;72.85
59588;BME280;45412;54.472;18.464;2023-01-27T16:03:43;100902.82;;;0.22;72.81
59588;BME280;45412;54.472;18.464;2023-01-27T16:06:35;100899.38;;;0.19;73.01
59588;BME280;45412;54.472;18.464;2023-01-27T16:09:50;100907.30;;;0.24;73.05
59588;BME280;45412;54.472;18.464;2023-01-27T16:12:44;100908.68;;;0.25;72.67
59588;BME280;45412;54.472;18.464;2023-01-27T16:15:35;100901.54;;;0.24;72.44
59588;BME280;45412;54.472;18.464;2023-01-27T16:18:39;100906.27;;;0.23;71.30
59588;BME280;45412;54.472;18.464;2023-01-27T16:21:53;100909.45;;;0.22;71.21
59588;BME280;45412;54.472;18.464;2023-01-27T16:24:51;100910.67;;;0.22;71.09
59588;BME280;45412;54.472;18.464;2023-01-27T16:27:50;100912.41;;;0.22;71.20
59588;BME280;45412;54.472;18.464;2023-01-27T16:31:04;100913.92;;;0.25;71.57
59588;BME280;45412;54.472;18.464;2023-01-27T16:33:59;100911.84;;;0.24;71.67
59588;BME280;45412;54.472;18.464;2023-01-27T16:37:01;100917.81;;;0.31;72.39
59588;BME280;45412;54.472;18.464;2023-01-27T16:40:04;100918.81;;;0.33;72.40
59588;BME280;45412;54.472;18.464;2023-01-27T16:42:56;100921.59;;;0.33;72.58
59588;BME280;45412;54.472;18.464;2023-01-27T16:45:50;100920.89;;;0.33;72.55
59588;BME280;45412;54.472;18.464;2023-01-27T16:48:43;100922.83;;;0.32;71.76
59588;BME280;45412;54.472;18.464;2023-01-27T16:51:32;100921.07;;;0.33;71.80
59588;BME280;45412;54.472;18.464;2023-01-27T16:54:30;100926.64;;;0.35;71.83
59588;BME280;45412;54.472;18.464;2023-01-27T16:57:33;100919.58;;;0.30;71.93